Main page
METAR-TAF:

METAR-TAF

Airports :

Milan–Malpensa Airport

Milan, Italy

latitude: 45-37N, longitude: 008-44E, elevation: 234 m

Current weather observation

The report was made 32 minutes ago, at 19:20 UTC
Wind 2 kt from the North
Temperature 19°C
Humidity 83%
Pressure 1016 hPa
Visibility 10 km or more
no clouds below 1500 m and no cumulonimbus

METAR: LIMC 211920Z 35002KT CAVOK 19/16 Q1016 NOSIG

Time: 21:52 (19:52 UTC)

Forecast

The report was made 2 hours and 52 minutes ago, at 17:00 UTC
Forecast valid from 21 at 18 UTC to 22 at 24 UTC
Wind 5 kt from variable directions
Visibility 10 km or more
Broken clouds at a height of 4000 ft
Temporary
from 21 at 04 UTC to 21 at 15 UTC
rain showers
Temporary
from 22 at 15 UTC to 22 at 18 UTC
Visibility: 4000 m
thunderstorm, rain
Temporary
from 22 at 18 UTC to 22 at 24 UTC
rain showers

TAF: LIMC 211700Z 2118/2224 VRB05KT 9999 BKN040 TEMPO 2104/2115 SHRA TEMPO 2215/2218 4000 TSRA TEMPO 2218/2224 SHRA

Weather observations and forecasts of more than 4000 airports (METAR and TAF reports).

The available stations are represented by yellow and red dots on the map.

Hover mouse over dot to see the name of the station.

Then click to see weather observations and forecasts.

To change the map : click on the green buttons with a black cross to zoom in, on the green button with a dash to zoom out, or on the green arrows for adjacent maps.


METAR-TAF: